createdAt,value
2022-12-31T00:00:38.653Z,8.80
2022-12-31T00:03:10.264Z,8.70
2022-12-31T00:05:37.957Z,8.80
2022-12-31T00:08:05.466Z,8.80
2022-12-31T00:10:39.920Z,8.80
2022-12-31T00:13:12.013Z,8.90
2022-12-31T00:15:41.459Z,8.90
2022-12-31T00:18:09.661Z,8.90
2022-12-31T00:20:41.872Z,8.90
2022-12-31T00:23:09.962Z,9.00
2022-12-31T00:25:37.376Z,9.00
2022-12-31T00:28:05.674Z,8.90
2022-12-31T00:30:34.471Z,8.90
2022-12-31T00:33:01.839Z,8.90
2022-12-31T00:35:29.439Z,8.90
2022-12-31T00:37:56.850Z,8.90
2022-12-31T00:40:24.241Z,8.90
2022-12-31T00:42:51.648Z,8.90
2022-12-31T00:45:19.013Z,8.90
2022-12-31T00:47:46.519Z,8.90
2022-12-31T00:50:13.911Z,8.80
2022-12-31T00:52:41.287Z,8.80
2022-12-31T00:55:08.953Z,8.70
2022-12-31T00:57:36.336Z,8.60
2022-12-31T01:00:06.967Z,8.60
2022-12-31T01:02:34.469Z,8.60
2022-12-31T01:05:02.041Z,8.60
2022-12-31T01:07:29.464Z,8.60
2022-12-31T01:09:56.809Z,8.60
2022-12-31T01:12:25.158Z,8.70
2022-12-31T01:14:52.559Z,8.70
2022-12-31T01:17:19.931Z,8.60
2022-12-31T01:19:47.309Z,8.60
2022-12-31T01:22:14.759Z,8.60
2022-12-31T01:24:42.144Z,8.50
2022-12-31T01:27:09.507Z,8.60
2022-12-31T01:29:37.090Z,8.50
2022-12-31T01:32:05.314Z,8.50
2022-12-31T01:34:32.700Z,8.40
2022-12-31T01:37:00.047Z,8.40
2022-12-31T01:39:27.404Z,8.40
2022-12-31T01:41:54.809Z,8.30
2022-12-31T01:44:24.941Z,8.30
2022-12-31T01:46:54.054Z,8.30
2022-12-31T01:49:36.727Z,8.30
2022-12-31T01:52:12.971Z,8.30
2022-12-31T01:54:52.527Z,8.40
2022-12-31T01:57:21.066Z,8.40
2022-12-31T01:59:48.488Z,8.50
2022-12-31T02:02:17.278Z,8.50
2022-12-31T02:04:44.747Z,8.50
2022-12-31T02:07:12.636Z,8.60
2022-12-31T02:09:42.158Z,8.50
2022-12-31T02:12:10.225Z,8.50
2022-12-31T02:14:44.496Z,8.60
2022-12-31T02:17:44.250Z,8.60
2022-12-31T02:20:33.151Z,8.70
2022-12-31T02:23:03.483Z,8.70
2022-12-31T02:25:33.959Z,8.70
2022-12-31T02:28:28.231Z,8.70
2022-12-31T02:31:12.075Z,8.60
2022-12-31T02:33:46.299Z,8.60
2022-12-31T02:36:20.552Z,8.60
2022-12-31T02:38:49.662Z,8.60
2022-12-31T02:41:38.998Z,8.60
2022-12-31T02:44:40.568Z,8.70
2022-12-31T02:47:07.932Z,8.70
2022-12-31T02:50:16.899Z,8.60
2022-12-31T02:53:23.651Z,8.70
2022-12-31T02:56:01.203Z,8.60
2022-12-31T02:58:58.490Z,8.60
2022-12-31T03:01:50.842Z,8.70
2022-12-31T03:04:35.830Z,8.70
2022-12-31T03:07:17.743Z,8.70
2022-12-31T03:09:45.151Z,8.60
2022-12-31T03:12:32.027Z,8.70
2022-12-31T03:14:59.915Z,8.70
2022-12-31T03:17:27.697Z,8.60
2022-12-31T03:20:27.380Z,8.60
2022-12-31T03:22:54.771Z,8.50
2022-12-31T03:25:40.375Z,8.50
2022-12-31T03:28:09.203Z,8.40
2022-12-31T03:30:39.548Z,8.40
2022-12-31T03:33:07.954Z,8.40
2022-12-31T03:35:36.994Z,8.40
2022-12-31T03:38:05.357Z,8.40
2022-12-31T03:40:36.841Z,8.40
2022-12-31T03:43:04.327Z,8.30
2022-12-31T03:45:31.726Z,8.30
2022-12-31T03:47:59.239Z,8.30
2022-12-31T03:50:26.588Z,8.30
2022-12-31T03:52:54.143Z,8.40
2022-12-31T03:55:21.553Z,8.40
2022-12-31T03:57:48.950Z,8.40
2022-12-31T04:00:19.233Z,8.40
2022-12-31T04:02:48.590Z,8.40
2022-12-31T04:05:17.677Z,8.40
2022-12-31T04:07:45.505Z,8.40
2022-12-31T04:10:15.507Z,8.40
2022-12-31T04:12:43.362Z,8.30
2022-12-31T04:15:18.414Z,8.30
2022-12-31T04:17:46.821Z,8.40
2022-12-31T04:20:15.000Z,8.40
2022-12-31T04:22:42.391Z,8.40
2022-12-31T04:25:12.950Z,8.40
2022-12-31T04:27:41.499Z,8.40
2022-12-31T04:30:10.442Z,8.40
2022-12-31T04:32:37.867Z,8.40
2022-12-31T04:35:05.765Z,8.40
2022-12-31T04:37:33.150Z,8.40
2022-12-31T04:40:05.487Z,8.40
2022-12-31T04:42:34.551Z,8.40
2022-12-31T04:45:02.057Z,8.40
2022-12-31T04:47:29.461Z,8.40
2022-12-31T04:49:56.803Z,8.50
2022-12-31T04:52:24.193Z,8.40
2022-12-31T04:54:51.544Z,8.50
2022-12-31T04:57:18.918Z,8.40
2022-12-31T04:59:46.403Z,8.40
2022-12-31T05:02:14.004Z,8.40
2022-12-31T05:04:41.570Z,8.50
2022-12-31T05:07:09.005Z,8.40
2022-12-31T05:09:36.394Z,8.50
2022-12-31T05:12:03.977Z,8.40
2022-12-31T05:14:31.360Z,8.50
2022-12-31T05:16:59.362Z,8.50
2022-12-31T05:19:26.797Z,8.40
2022-12-31T05:22:14.424Z,8.40
2022-12-31T05:24:41.817Z,8.30
2022-12-31T05:27:09.401Z,8.30
2022-12-31T05:29:36.808Z,8.30
2022-12-31T05:32:04.288Z,8.30
2022-12-31T05:34:31.961Z,8.40
2022-12-31T05:36:59.317Z,8.40
2022-12-31T05:39:26.687Z,8.40
2022-12-31T05:41:54.081Z,8.40
2022-12-31T05:44:21.516Z,8.40
2022-12-31T05:46:48.894Z,8.40
2022-12-31T05:49:16.925Z,8.50
2022-12-31T05:51:44.567Z,8.50
2022-12-31T05:54:11.961Z,8.50
2022-12-31T05:56:39.344Z,8.40
2022-12-31T05:59:06.777Z,8.40
2022-12-31T06:01:34.592Z,8.50
2022-12-31T06:04:02.093Z,8.50
2022-12-31T06:06:29.511Z,8.50
2022-12-31T06:08:56.944Z,8.40
2022-12-31T06:11:24.331Z,8.50
2022-12-31T06:13:51.777Z,8.40
2022-12-31T06:16:19.191Z,8.40
2022-12-31T06:18:50.820Z,8.40
2022-12-31T06:21:20.079Z,8.50
2022-12-31T06:23:47.999Z,8.40
2022-12-31T06:26:15.840Z,8.50
2022-12-31T06:28:43.217Z,8.40
2022-12-31T06:31:14.029Z,8.40
2022-12-31T06:33:45.615Z,8.40
2022-12-31T06:36:15.680Z,8.40
2022-12-31T06:38:44.188Z,8.40
2022-12-31T06:41:13.589Z,8.40
2022-12-31T06:43:41.818Z,8.40
2022-12-31T06:46:12.065Z,8.50
2022-12-31T06:48:41.926Z,8.50
2022-12-31T06:51:17.460Z,8.40
2022-12-31T06:53:47.465Z,8.30
2022-12-31T06:56:33.953Z,8.30
2022-12-31T06:59:03.065Z,8.30
2022-12-31T07:01:52.000Z,8.30
2022-12-31T07:04:42.364Z,8.30
2022-12-31T07:07:26.625Z,8.40
2022-12-31T07:09:56.779Z,8.40
2022-12-31T07:12:40.915Z,8.40
2022-12-31T07:15:29.791Z,8.40
2022-12-31T07:18:00.265Z,8.50
2022-12-31T07:20:28.124Z,8.50
2022-12-31T07:22:55.807Z,8.40
2022-12-31T07:25:23.619Z,8.50
2022-12-31T07:28:14.300Z,8.50
2022-12-31T07:31:04.409Z,8.60
2022-12-31T07:33:58.392Z,8.60
2022-12-31T07:36:53.353Z,8.60
2022-12-31T07:39:25.498Z,8.60
2022-12-31T07:41:57.318Z,8.60
2022-12-31T07:44:43.196Z,8.70
2022-12-31T07:47:25.412Z,9.00
2022-12-31T07:49:53.819Z,9.00
2022-12-31T07:52:22.003Z,9.00
2022-12-31T07:54:49.931Z,9.00
2022-12-31T07:57:19.671Z,8.90
2022-12-31T08:00:11.371Z,8.90
2022-12-31T08:03:18.626Z,8.90
2022-12-31T08:05:48.742Z,8.80
2022-12-31T08:08:29.104Z,8.80
2022-12-31T08:11:14.515Z,8.80
2022-12-31T08:13:42.890Z,8.90
2022-12-31T08:16:14.164Z,8.90
2022-12-31T08:18:41.790Z,9.00
2022-12-31T08:21:32.876Z,9.00
2022-12-31T08:24:08.505Z,9.10
2022-12-31T08:26:54.512Z,9.20
2022-12-31T08:29:42.280Z,9.20
2022-12-31T08:32:22.808Z,9.20
2022-12-31T08:35:06.126Z,9.20
2022-12-31T08:37:44.585Z,9.20
2022-12-31T08:40:24.021Z,9.30
2022-12-31T08:43:00.784Z,9.30
2022-12-31T08:45:38.241Z,9.40
2022-12-31T08:48:18.784Z,9.40
2022-12-31T08:50:46.383Z,9.40
2022-12-31T08:53:14.044Z,9.30
2022-12-31T08:55:44.004Z,9.30
2022-12-31T08:58:29.381Z,9.30
2022-12-31T09:00:59.393Z,9.30
2022-12-31T09:03:44.369Z,9.40
2022-12-31T09:06:27.125Z,9.50
2022-12-31T09:09:12.170Z,9.50
2022-12-31T09:12:03.136Z,9.50
2022-12-31T09:14:44.890Z,9.60
2022-12-31T09:17:44.879Z,9.50
2022-12-31T09:20:24.827Z,9.50
2022-12-31T09:22:53.529Z,9.50
2022-12-31T09:25:22.538Z,9.60
2022-12-31T09:28:17.374Z,9.60
2022-12-31T09:30:47.469Z,9.60
2022-12-31T09:33:26.766Z,9.70
2022-12-31T09:36:00.585Z,9.70
2022-12-31T09:38:36.910Z,9.80
2022-12-31T09:41:14.496Z,9.90
2022-12-31T09:43:58.953Z,10.00
2022-12-31T09:46:49.973Z,10.10
2022-12-31T09:49:55.045Z,10.10
2022-12-31T09:52:58.293Z,10.30
2022-12-31T09:55:52.771Z,10.40
2022-12-31T09:58:32.015Z,10.50
2022-12-31T10:01:10.601Z,10.60
2022-12-31T10:04:11.636Z,10.60
2022-12-31T10:06:42.065Z,10.70
2022-12-31T10:09:35.100Z,10.60
2022-12-31T10:12:30.817Z,10.70
2022-12-31T10:15:08.548Z,10.70
2022-12-31T10:18:12.441Z,10.70
2022-12-31T10:20:57.858Z,10.80
2022-12-31T10:23:55.657Z,10.80
2022-12-31T10:26:28.687Z,10.80
2022-12-31T10:29:18.016Z,10.80
2022-12-31T10:32:31.204Z,10.80
2022-12-31T10:35:22.276Z,10.80
2022-12-31T10:38:46.532Z,10.80
2022-12-31T10:41:42.486Z,10.80
2022-12-31T10:44:39.638Z,10.90
2022-12-31T10:47:37.632Z,10.90
2022-12-31T10:50:34.151Z,11.00
2022-12-31T10:53:19.965Z,11.10
2022-12-31T10:56:04.836Z,11.10
2022-12-31T10:58:56.243Z,11.10
2022-12-31T11:01:48.205Z,11.00
2022-12-31T11:04:52.385Z,11.00
2022-12-31T11:07:25.739Z,11.00
2022-12-31T11:09:55.958Z,11.10
2022-12-31T11:12:23.286Z,11.20
2022-12-31T11:15:04.154Z,11.20
2022-12-31T11:18:23.343Z,11.30
2022-12-31T11:21:00.285Z,11.40
2022-12-31T11:23:39.330Z,11.50
2022-12-31T11:26:32.494Z,11.50
2022-12-31T11:29:09.153Z,11.50
2022-12-31T11:32:02.218Z,11.50
2022-12-31T11:34:38.402Z,11.60
2022-12-31T11:37:42.754Z,11.50
2022-12-31T11:40:38.992Z,11.50
2022-12-31T11:43:38.473Z,11.50
2022-12-31T11:46:35.714Z,11.50
2022-12-31T11:49:27.727Z,11.50
2022-12-31T11:52:21.608Z,11.50
2022-12-31T11:55:18.535Z,11.50
2022-12-31T11:57:52.848Z,11.50
2022-12-31T12:00:25.550Z,11.60
2022-12-31T12:03:07.741Z,11.70
2022-12-31T12:05:39.730Z,11.70
2022-12-31T12:08:08.477Z,11.70
2022-12-31T12:11:08.342Z,11.80
2022-12-31T12:13:37.207Z,11.80
2022-12-31T12:16:08.456Z,11.90
2022-12-31T12:18:48.237Z,11.70
2022-12-31T12:21:23.211Z,11.80
2022-12-31T12:24:24.104Z,12.00
2022-12-31T12:26:53.131Z,12.10
2022-12-31T12:29:36.279Z,12.30
2022-12-31T12:32:18.927Z,12.30
2022-12-31T12:34:50.038Z,12.30
2022-12-31T12:37:37.591Z,12.30
2022-12-31T12:40:19.836Z,12.30
2022-12-31T12:42:51.075Z,12.40
2022-12-31T12:45:22.768Z,12.30
2022-12-31T12:47:59.798Z,12.40
2022-12-31T12:50:44.116Z,12.30
2022-12-31T12:53:38.902Z,12.30
2022-12-31T12:56:35.573Z,12.20
2022-12-31T12:59:11.502Z,12.10
2022-12-31T13:01:52.137Z,12.10
2022-12-31T13:04:37.278Z,12.10
2022-12-31T13:07:23.477Z,12.10
2022-12-31T13:10:14.530Z,12.10
2022-12-31T13:13:36.225Z,12.20
2022-12-31T13:16:12.479Z,12.30
2022-12-31T13:18:52.184Z,12.20
2022-12-31T13:21:42.364Z,12.30
2022-12-31T13:24:31.191Z,12.20
2022-12-31T13:27:07.008Z,12.20
2022-12-31T13:29:38.219Z,12.20
2022-12-31T13:32:12.137Z,12.10
2022-12-31T13:34:46.802Z,12.00
2022-12-31T13:37:32.860Z,12.00
2022-12-31T13:40:19.034Z,12.00
2022-12-31T13:43:20.015Z,12.00
2022-12-31T13:46:01.030Z,11.90
2022-12-31T13:48:53.651Z,11.90
2022-12-31T13:51:30.607Z,11.80
2022-12-31T13:54:14.527Z,11.70
2022-12-31T13:56:44.588Z,11.60
2022-12-31T13:59:48.412Z,11.50
2022-12-31T14:02:45.447Z,11.50
2022-12-31T14:05:25.584Z,11.50
2022-12-31T14:07:58.316Z,11.50
2022-12-31T14:10:38.273Z,11.50
2022-12-31T14:13:21.444Z,11.40
2022-12-31T14:16:09.223Z,11.40
2022-12-31T14:18:56.346Z,11.30
2022-12-31T14:21:35.049Z,11.20
2022-12-31T14:24:17.035Z,11.20
2022-12-31T14:26:49.992Z,11.20
2022-12-31T14:29:38.968Z,11.20
2022-12-31T14:32:47.920Z,11.20
2022-12-31T14:35:31.055Z,11.20
2022-12-31T14:38:14.811Z,11.20
2022-12-31T14:41:05.627Z,11.10
2022-12-31T14:43:41.349Z,11.10
2022-12-31T14:46:21.788Z,11.10
2022-12-31T14:49:12.820Z,11.10
2022-12-31T14:51:43.067Z,11.00
2022-12-31T14:54:59.215Z,11.00
2022-12-31T14:58:01.628Z,10.90
2022-12-31T15:00:42.209Z,10.90
2022-12-31T15:03:16.444Z,10.90
2022-12-31T15:06:14.197Z,11.00
2022-12-31T15:09:08.155Z,11.00
2022-12-31T15:11:59.213Z,11.00
2022-12-31T15:14:59.157Z,11.00
2022-12-31T15:17:54.097Z,10.80
2022-12-31T15:20:46.142Z,10.80
2022-12-31T15:23:26.894Z,10.80
2022-12-31T15:26:01.848Z,10.80
2022-12-31T15:28:37.922Z,10.80
2022-12-31T15:31:19.077Z,10.80
2022-12-31T15:33:58.976Z,10.70
2022-12-31T15:36:52.605Z,10.70
2022-12-31T15:39:33.585Z,10.70
2022-12-31T15:44:58.517Z,10.70
2022-12-31T15:47:46.593Z,10.70
2022-12-31T15:50:22.516Z,10.60
2022-12-31T15:52:56.013Z,10.60
2022-12-31T15:55:38.405Z,10.50
2022-12-31T15:58:12.410Z,10.50
2022-12-31T16:01:02.583Z,10.40
2022-12-31T16:03:33.267Z,10.50
2022-12-31T16:06:11.615Z,10.50
2022-12-31T16:08:45.174Z,10.50
2022-12-31T16:11:15.167Z,10.50
2022-12-31T16:13:48.060Z,10.60
2022-12-31T16:16:33.059Z,10.50
2022-12-31T16:19:02.982Z,10.60
2022-12-31T16:21:36.023Z,10.60
2022-12-31T16:24:24.799Z,10.50
2022-12-31T16:26:57.923Z,10.60
2022-12-31T16:29:27.732Z,10.50
2022-12-31T16:31:56.793Z,10.60
2022-12-31T16:34:29.261Z,10.50
2022-12-31T16:37:04.720Z,10.50
2022-12-31T16:39:39.843Z,10.60
2022-12-31T16:42:14.858Z,10.60
2022-12-31T16:44:43.640Z,10.60
2022-12-31T16:47:32.502Z,10.60
2022-12-31T16:50:27.663Z,10.60
2022-12-31T16:53:04.656Z,10.50
2022-12-31T16:55:36.385Z,10.50
2022-12-31T16:58:19.574Z,10.50
2022-12-31T17:00:51.260Z,10.50
2022-12-31T17:03:27.506Z,10.50
2022-12-31T17:06:10.199Z,10.50
2022-12-31T17:08:44.402Z,10.50
2022-12-31T17:11:32.079Z,10.40
2022-12-31T17:14:07.045Z,10.60
2022-12-31T17:16:40.279Z,10.60
2022-12-31T17:19:32.955Z,10.60
2022-12-31T17:22:03.138Z,10.60
2022-12-31T17:24:33.091Z,10.60
2022-12-31T17:27:07.810Z,10.70
2022-12-31T17:29:36.895Z,10.60
2022-12-31T17:32:26.687Z,10.60
2022-12-31T17:34:56.689Z,10.60
2022-12-31T17:37:29.597Z,10.60
2022-12-31T17:40:49.821Z,10.60
2022-12-31T17:42:51.048Z,10.60
2022-12-31T17:45:22.535Z,10.50
2022-12-31T17:47:54.419Z,10.50
2022-12-31T17:50:25.664Z,10.50
2022-12-31T17:53:03.594Z,10.50
2022-12-31T17:55:33.190Z,10.50
2022-12-31T17:58:05.505Z,10.50
2022-12-31T18:00:38.263Z,10.50
2022-12-31T18:03:07.274Z,10.50
2022-12-31T18:05:36.097Z,10.50
2022-12-31T18:08:06.060Z,10.50
2022-12-31T18:10:39.437Z,10.50
2022-12-31T18:13:18.225Z,10.50
2022-12-31T18:15:48.177Z,10.50
2022-12-31T18:18:24.753Z,10.50
2022-12-31T18:21:44.815Z,10.50
2022-12-31T18:24:24.229Z,10.50
2022-12-31T18:26:55.758Z,10.40
2022-12-31T18:29:24.767Z,10.30
2022-12-31T18:31:54.681Z,10.30
2022-12-31T18:34:23.637Z,10.30
2022-12-31T18:36:52.864Z,10.30
2022-12-31T18:39:22.531Z,10.30
2022-12-31T18:41:52.361Z,10.30
2022-12-31T18:44:21.443Z,10.30
2022-12-31T18:46:54.399Z,10.30
2022-12-31T18:49:24.348Z,10.30
2022-12-31T18:51:56.152Z,10.30
2022-12-31T18:54:26.247Z,10.30
2022-12-31T18:56:57.340Z,10.30
2022-12-31T18:59:26.476Z,10.30
2022-12-31T19:01:55.497Z,10.30
2022-12-31T19:04:28.307Z,10.40
2022-12-31T19:06:58.078Z,10.40
2022-12-31T19:09:45.205Z,10.40
2022-12-31T19:12:16.851Z,10.40
2022-12-31T19:14:45.892Z,10.40
2022-12-31T19:17:15.844Z,10.40
2022-12-31T19:19:45.685Z,10.40
2022-12-31T19:22:17.255Z,10.40
2022-12-31T19:24:47.599Z,10.40
2022-12-31T19:27:16.171Z,10.40
2022-12-31T19:29:45.556Z,10.40
2022-12-31T19:32:12.981Z,10.50
2022-12-31T19:34:43.304Z,10.40
2022-12-31T19:37:16.870Z,10.50
2022-12-31T19:39:44.245Z,10.50
2022-12-31T19:42:15.584Z,10.50
2022-12-31T19:44:42.940Z,10.50
2022-12-31T19:47:13.483Z,10.50
2022-12-31T19:49:40.858Z,10.50
2022-12-31T19:52:08.411Z,10.50
2022-12-31T19:54:35.771Z,10.50
2022-12-31T19:57:03.135Z,10.40
2022-12-31T19:59:30.531Z,10.40
2022-12-31T20:01:58.092Z,10.40
2022-12-31T20:04:25.725Z,10.30
2022-12-31T20:06:53.059Z,10.30
2022-12-31T20:09:20.509Z,10.30
2022-12-31T20:11:47.924Z,10.30
2022-12-31T20:14:15.454Z,10.40
2022-12-31T20:16:42.871Z,10.40
2022-12-31T20:19:10.737Z,10.50
2022-12-31T20:21:38.829Z,10.50
2022-12-31T20:24:06.481Z,10.50
2022-12-31T20:26:33.859Z,10.50
2022-12-31T20:29:01.267Z,10.50
2022-12-31T20:31:28.677Z,10.50
2022-12-31T20:33:56.415Z,10.50
2022-12-31T20:36:23.975Z,10.50
2022-12-31T20:38:51.801Z,10.50
2022-12-31T20:41:22.111Z,10.40
2022-12-31T20:43:49.720Z,10.50
2022-12-31T20:46:21.243Z,10.50
2022-12-31T20:48:50.771Z,10.50
2022-12-31T20:51:19.511Z,10.50
2022-12-31T20:53:49.039Z,10.50
2022-12-31T20:56:17.702Z,10.40
2022-12-31T20:58:45.207Z,10.40
2022-12-31T21:01:13.746Z,10.40
2022-12-31T21:06:31.032Z,10.50
2022-12-31T21:09:00.689Z,10.50
2022-12-31T21:11:47.205Z,10.50
2022-12-31T21:14:14.925Z,10.40
2022-12-31T21:16:42.369Z,10.40
2022-12-31T21:19:10.036Z,10.40
2022-12-31T21:21:38.168Z,10.40
2022-12-31T21:24:05.870Z,10.40
2022-12-31T21:26:34.398Z,10.40
2022-12-31T21:29:01.789Z,10.40
2022-12-31T21:31:29.188Z,10.40
2022-12-31T21:33:56.551Z,10.40
2022-12-31T21:36:24.033Z,10.50
2022-12-31T21:38:51.438Z,10.50
2022-12-31T21:41:37.571Z,10.40
2022-12-31T21:44:05.029Z,10.40
2022-12-31T21:46:32.463Z,10.40
2022-12-31T21:49:01.015Z,10.40
2022-12-31T21:51:31.374Z,10.40
2022-12-31T21:53:58.758Z,10.50
2022-12-31T21:56:26.171Z,10.40
2022-12-31T21:59:14.786Z,10.40
2022-12-31T22:02:01.354Z,10.50
2022-12-31T22:05:00.906Z,10.50
2022-12-31T22:07:16.595Z,10.50
2022-12-31T22:09:44.048Z,10.50
2022-12-31T22:12:11.479Z,10.50
2022-12-31T22:14:38.846Z,10.50
2022-12-31T22:17:06.318Z,10.50
2022-12-31T22:19:39.300Z,10.40
2022-12-31T22:22:21.388Z,10.40
2022-12-31T22:24:48.782Z,10.50
2022-12-31T22:27:28.816Z,10.50
2022-12-31T22:29:57.056Z,10.50
2022-12-31T22:32:24.436Z,10.50
2022-12-31T22:34:51.795Z,10.50
2022-12-31T22:37:46.473Z,10.50
2022-12-31T22:40:07.195Z,10.50
2022-12-31T22:42:34.692Z,10.50
2022-12-31T22:45:02.103Z,10.50
2022-12-31T22:47:29.663Z,10.50
2022-12-31T22:49:57.253Z,10.60
2022-12-31T22:52:24.687Z,10.50
2022-12-31T22:54:54.550Z,10.50
2022-12-31T22:57:21.915Z,10.40
2022-12-31T22:59:49.362Z,10.50
2022-12-31T23:02:16.901Z,10.40
2022-12-31T23:04:44.505Z,10.40
2022-12-31T23:07:11.978Z,10.40
2022-12-31T23:09:57.899Z,10.40
2022-12-31T23:12:25.603Z,10.50
2022-12-31T23:15:11.759Z,10.50
2022-12-31T23:17:57.589Z,10.50
2022-12-31T23:20:44.108Z,10.50
2022-12-31T23:23:15.383Z,10.40
2022-12-31T23:25:48.355Z,10.30
2022-12-31T23:28:24.204Z,10.30
2022-12-31T23:30:52.311Z,10.20
2022-12-31T23:33:22.627Z,10.30
2022-12-31T23:35:50.082Z,10.20
2022-12-31T23:38:18.563Z,10.10
2022-12-31T23:40:46.069Z,10.00
2022-12-31T23:43:20.631Z,10.00
2022-12-31T23:45:51.741Z,10.00
2022-12-31T23:48:19.275Z,10.00
2022-12-31T23:50:53.057Z,10.00
2022-12-31T23:53:22.634Z,10.00
2022-12-31T23:55:50.834Z,10.00
2022-12-31T23:58:18.309Z,10.00
